createdAt,value
2023-05-19T00:01:25.269Z,51.07
2023-05-19T00:06:33.260Z,51.02
2023-05-19T00:11:38.487Z,50.30
2023-05-19T00:16:42.607Z,50.27
2023-05-19T00:21:45.725Z,49.42
2023-05-19T00:26:48.832Z,50.07
2023-05-19T00:31:52.021Z,50.25
2023-05-19T00:36:55.156Z,50.23
2023-05-19T00:41:58.283Z,50.65
2023-05-19T00:47:01.598Z,50.17
2023-05-19T00:52:07.187Z,50.44
2023-05-19T00:57:10.409Z,49.88
2023-05-19T01:02:13.701Z,49.65
2023-05-19T01:07:16.946Z,48.83
2023-05-19T01:12:20.369Z,49.70
2023-05-19T01:17:35.472Z,49.60
2023-05-19T01:23:00.654Z,48.42
2023-05-19T01:28:09.458Z,47.85
2023-05-19T01:33:15.023Z,48.46
2023-05-19T01:38:19.693Z,48.83
2023-05-19T01:43:26.198Z,48.51
2023-05-19T01:48:30.372Z,48.88
2023-05-19T01:53:34.135Z,49.41
2023-05-19T01:58:43.271Z,49.23
2023-05-19T02:04:08.084Z,49.21
2023-05-19T02:09:41.515Z,49.54
2023-05-19T02:15:00.458Z,50.24
2023-05-19T02:20:05.481Z,50.60
2023-05-19T02:25:09.420Z,50.53
2023-05-19T02:30:13.360Z,49.29
2023-05-19T02:35:16.534Z,49.61
2023-05-19T02:40:19.932Z,49.66
2023-05-19T02:45:23.833Z,48.63
2023-05-19T02:50:26.891Z,47.13
2023-05-19T02:55:30.080Z,46.81
2023-05-19T03:00:33.401Z,46.04
2023-05-19T03:05:37.179Z,46.25
2023-05-19T03:10:40.540Z,45.90
2023-05-19T03:15:43.674Z,45.87
2023-05-19T03:20:46.741Z,44.74
2023-05-19T03:25:49.851Z,44.78
2023-05-19T03:30:53.032Z,43.99
2023-05-19T03:36:00.306Z,43.19
2023-05-19T03:41:06.452Z,43.00
2023-05-19T03:46:10.537Z,42.25
2023-05-19T03:51:35.245Z,41.94
2023-05-19T03:56:57.236Z,40.35
2023-05-19T04:02:00.417Z,38.61
2023-05-19T04:07:03.682Z,36.63
2023-05-19T04:12:07.057Z,34.69
2023-05-19T04:17:10.236Z,33.94
2023-05-19T04:22:13.399Z,32.46
2023-05-19T04:27:18.220Z,31.59
2023-05-19T04:32:21.387Z,30.36
2023-05-19T04:37:28.328Z,29.25
2023-05-19T04:42:33.271Z,28.84
2023-05-19T04:47:38.558Z,27.99
2023-05-19T04:52:45.871Z,26.60
2023-05-19T04:57:49.068Z,27.00
2023-05-19T05:02:52.252Z,26.04
2023-05-19T05:07:57.839Z,24.98
2023-05-19T05:13:04.269Z,24.86
2023-05-19T05:18:07.924Z,25.42
2023-05-19T05:23:14.944Z,24.98
2023-05-19T05:28:19.925Z,23.87
2023-05-19T05:33:25.222Z,23.96
2023-05-19T05:38:28.395Z,23.74
2023-05-19T05:43:31.807Z,23.61
2023-05-19T05:48:39.007Z,22.97
2023-05-19T05:53:45.275Z,21.94
2023-05-19T05:58:51.038Z,21.11
2023-05-19T06:03:54.455Z,21.03
2023-05-19T06:09:00.162Z,21.71
2023-05-19T06:14:04.688Z,20.48
2023-05-19T06:19:33.623Z,20.15
2023-05-19T06:24:38.755Z,21.07
2023-05-19T06:29:44.877Z,20.87
2023-05-19T06:34:54.973Z,20.17
2023-05-19T06:39:58.326Z,20.31
2023-05-19T06:45:01.573Z,20.44
2023-05-19T06:50:11.334Z,21.05
2023-05-19T06:55:17.886Z,20.55
2023-05-19T07:00:24.003Z,19.71
2023-05-19T07:05:29.230Z,19.38
2023-05-19T07:10:35.002Z,19.28
2023-05-19T07:15:40.520Z,17.90
2023-05-19T07:20:43.854Z,17.89
2023-05-19T07:25:47.052Z,16.55
2023-05-19T07:30:50.266Z,17.16
2023-05-19T07:35:53.981Z,16.65
2023-05-19T07:40:57.249Z,17.57
2023-05-19T07:46:00.449Z,17.00
2023-05-19T07:51:03.751Z,16.57
2023-05-19T07:56:07.013Z,16.69
2023-05-19T08:01:10.078Z,17.26
2023-05-19T08:06:13.300Z,16.61
2023-05-19T08:11:16.904Z,17.62
2023-05-19T08:16:20.141Z,17.27
2023-05-19T08:21:23.449Z,16.80
2023-05-19T08:26:26.714Z,17.48
2023-05-19T08:31:29.913Z,16.78
2023-05-19T08:36:34.206Z,17.30
2023-05-19T08:41:37.405Z,17.32
2023-05-19T08:46:41.622Z,17.52
2023-05-19T08:51:58.915Z,17.51
2023-05-19T08:57:02.648Z,17.83
2023-05-19T09:02:07.191Z,17.78
2023-05-19T09:07:11.232Z,17.54
2023-05-19T09:12:14.760Z,17.42
2023-05-19T09:17:19.021Z,17.39
2023-05-19T09:22:22.194Z,17.83
2023-05-19T09:27:25.302Z,18.36
2023-05-19T09:32:28.585Z,17.90
2023-05-19T09:37:32.579Z,17.97
2023-05-19T09:42:38.588Z,18.12
2023-05-19T09:47:42.488Z,18.48
2023-05-19T09:52:45.885Z,18.29
2023-05-19T09:57:49.391Z,18.84
2023-05-19T10:02:53.334Z,18.67
2023-05-19T10:07:56.423Z,18.72
2023-05-19T10:13:00.550Z,18.80
2023-05-19T10:18:04.095Z,18.92
2023-05-19T10:23:07.304Z,19.17
2023-05-19T10:28:15.460Z,18.93
2023-05-19T10:33:21.561Z,18.69
2023-05-19T10:38:57.137Z,18.71
2023-05-19T10:44:29.488Z,18.66
2023-05-19T10:49:36.090Z,19.30
2023-05-19T10:54:47.715Z,18.97
2023-05-19T10:59:51.277Z,19.11
2023-05-19T11:04:58.656Z,18.67
2023-05-19T11:10:07.358Z,18.57
2023-05-19T11:15:12.765Z,18.36
2023-05-19T11:20:27.836Z,17.54
2023-05-19T11:25:48.231Z,17.96
2023-05-19T11:30:54.209Z,17.06
2023-05-19T11:35:58.781Z,17.99
2023-05-19T11:41:03.900Z,17.94
2023-05-19T11:46:07.064Z,17.96
2023-05-19T11:51:10.236Z,17.39
2023-05-19T11:56:13.366Z,17.88
2023-05-19T12:01:16.867Z,18.69
2023-05-19T12:06:20.058Z,18.12
2023-05-19T12:11:24.568Z,18.44
2023-05-19T12:16:35.080Z,18.76
2023-05-19T12:21:38.657Z,18.51
2023-05-19T12:26:41.824Z,18.11
2023-05-19T12:31:47.645Z,18.42
2023-05-19T12:36:50.910Z,18.18
2023-05-19T12:41:54.782Z,17.66
2023-05-19T12:46:59.870Z,18.23
2023-05-19T12:52:07.170Z,18.74
2023-05-19T12:57:13.728Z,18.97
2023-05-19T13:02:18.672Z,19.32
2023-05-19T13:07:21.843Z,19.28
2023-05-19T13:12:26.344Z,18.81
2023-05-19T13:17:29.837Z,18.32
2023-05-19T13:22:33.315Z,18.58
2023-05-19T13:27:36.588Z,18.33
2023-05-19T13:32:40.053Z,18.89
2023-05-19T13:37:43.562Z,18.28
2023-05-19T13:42:46.939Z,18.03
2023-05-19T13:47:50.272Z,17.89
2023-05-19T13:52:54.306Z,18.72
2023-05-19T13:57:57.594Z,19.23
2023-05-19T14:03:00.924Z,19.05
2023-05-19T14:08:05.854Z,19.95
2023-05-19T14:18:16.909Z,19.95
2023-05-19T14:23:21.848Z,19.60
2023-05-19T14:28:24.873Z,19.63
2023-05-19T14:33:27.907Z,20.21
2023-05-19T14:38:31.582Z,20.16
2023-05-19T14:43:34.759Z,19.90
2023-05-19T14:48:37.983Z,19.21
2023-05-19T14:53:41.334Z,19.71
2023-05-19T14:58:44.450Z,19.89
2023-05-19T15:03:47.633Z,19.89
2023-05-19T15:08:50.798Z,19.84
2023-05-19T15:13:53.907Z,20.47
2023-05-19T15:18:57.156Z,20.22
2023-05-19T15:24:00.317Z,20.78
2023-05-19T15:29:03.587Z,20.33
2023-05-19T15:34:06.725Z,20.51
2023-05-19T15:39:10.275Z,21.29
2023-05-19T15:44:13.536Z,21.45
2023-05-19T15:49:18.217Z,21.00
2023-05-19T15:54:21.333Z,21.27
2023-05-19T15:59:24.607Z,21.74
2023-05-19T16:04:27.730Z,22.41
2023-05-19T16:09:31.028Z,23.22
2023-05-19T16:14:36.866Z,23.82
2023-05-19T16:19:41.543Z,25.09
2023-05-19T16:24:44.635Z,25.55
2023-05-19T16:29:47.846Z,26.36
2023-05-19T16:34:51.013Z,27.31
2023-05-19T16:39:54.187Z,28.02
2023-05-19T16:44:57.239Z,28.54
2023-05-19T16:50:00.373Z,29.12
2023-05-19T16:55:03.569Z,30.01
2023-05-19T17:00:07.573Z,30.95
2023-05-19T17:05:29.371Z,31.70
2023-05-19T17:10:33.960Z,32.34
2023-05-19T17:15:56.236Z,32.52
2023-05-19T17:21:03.967Z,33.32
2023-05-19T17:26:07.523Z,33.55
2023-05-19T17:31:12.759Z,34.84
2023-05-19T17:36:16.085Z,34.96
2023-05-19T17:41:19.270Z,34.91
2023-05-19T17:46:23.534Z,35.27
2023-05-19T17:51:27.075Z,35.31
2023-05-19T17:56:34.567Z,35.95
2023-05-19T18:01:37.925Z,37.19
2023-05-19T18:06:44.084Z,39.27
2023-05-19T18:11:47.164Z,38.73
2023-05-19T18:16:50.424Z,38.95
2023-05-19T18:21:53.651Z,39.33
2023-05-19T18:26:56.836Z,39.35
2023-05-19T18:32:00.096Z,38.95
2023-05-19T18:37:03.417Z,38.97
2023-05-19T18:42:08.263Z,38.82
2023-05-19T18:47:11.949Z,38.06
2023-05-19T18:52:15.760Z,38.40
2023-05-19T18:57:18.833Z,38.17
2023-05-19T19:02:22.060Z,38.32
2023-05-19T19:07:27.192Z,38.68
2023-05-19T19:12:30.309Z,39.40
2023-05-19T19:17:33.477Z,39.81
2023-05-19T19:22:36.714Z,40.42
2023-05-19T19:27:39.839Z,41.24
2023-05-19T19:32:43.018Z,42.13
2023-05-19T19:37:47.250Z,42.74
2023-05-19T19:42:50.409Z,43.34
2023-05-19T19:47:53.849Z,43.98
2023-05-19T19:52:57.024Z,45.29
2023-05-19T19:58:00.155Z,45.96
2023-05-19T20:03:05.466Z,46.26
2023-05-19T20:08:09.064Z,46.69
2023-05-19T20:13:12.200Z,47.45
2023-05-19T20:18:15.716Z,47.80
2023-05-19T20:23:18.991Z,47.61
2023-05-19T20:28:23.275Z,47.66
2023-05-19T20:33:27.385Z,48.44
2023-05-19T20:38:30.656Z,48.43
2023-05-19T20:43:34.179Z,49.60
2023-05-19T20:48:37.363Z,49.29
2023-05-19T20:53:40.640Z,49.50
2023-05-19T20:58:43.755Z,49.81
2023-05-19T21:03:46.850Z,50.76
2023-05-19T21:08:49.945Z,50.58
2023-05-19T21:13:54.464Z,50.79
2023-05-19T21:18:57.532Z,51.22
2023-05-19T21:24:01.105Z,51.50
2023-05-19T21:29:04.224Z,52.23
2023-05-19T21:34:10.281Z,51.84
2023-05-19T21:39:13.824Z,52.48
2023-05-19T21:44:18.809Z,52.59
2023-05-19T21:49:27.205Z,53.03
2023-05-19T21:54:30.873Z,53.56
2023-05-19T21:59:33.929Z,53.85
2023-05-19T22:04:37.538Z,53.49
2023-05-19T22:09:40.825Z,54.21
2023-05-19T22:14:43.896Z,54.31
2023-05-19T22:19:46.912Z,54.85
2023-05-19T22:24:50.031Z,54.74
2023-05-19T22:29:53.062Z,55.78
2023-05-19T22:34:56.338Z,54.40
2023-05-19T22:39:59.433Z,54.75
2023-05-19T22:45:02.697Z,54.73
2023-05-19T22:50:10.523Z,55.37
2023-05-19T22:55:13.722Z,55.09
2023-05-19T23:00:20.990Z,55.77
2023-05-19T23:05:24.276Z,56.65
2023-05-19T23:10:27.491Z,56.24
2023-05-19T23:15:30.553Z,56.87
2023-05-19T23:20:34.782Z,56.66
2023-05-19T23:25:37.873Z,56.80
2023-05-19T23:30:41.085Z,56.71
2023-05-19T23:35:46.549Z,57.03
2023-05-19T23:40:49.660Z,57.03
2023-05-19T23:45:52.745Z,57.04
2023-05-19T23:50:56.134Z,56.86
2023-05-19T23:55:59.306Z,57.47
